Time;durP1;ratioP1;P1;durP2;ratioP2;P2;SDS_P1;SDS_P2;PMS_P1;PMS_P2;Temp;Humidity;BMP_temperature;BMP_pressure;BME280_temperature;BME280_humidity;BME280_pressure;Samples;Min_cycle;Max_cycle;Signal;HPM_P1;HPM_P2
2024/04/12 00:01:03;;;;;;;18.02;9.15;;;460.80;2380.80;;;;;;5395361;26;20008;-73
2024/04/12 00:03:31;;;;;;;13.52;9.60;;;460.90;2380.80;;;;;;5400666;26;20501;-73
2024/04/12 00:06:00;;;;;;;22.80;9.25;;;460.90;2380.80;;;;;;5395641;26;19996;-73
2024/04/12 00:08:29;;;;;;;12.60;9.25;;;460.90;2380.80;;;;;;5404121;26;19996;-72
2024/04/12 00:10:56;;;;;;;17.40;10.75;;;460.90;2380.80;;;;;;5390618;26;20304;-72
2024/04/12 00:13:23;;;;;;;18.13;9.55;;;460.90;2380.80;;;;;;5405325;26;20011;-73
2024/04/12 00:15:55;;;;;;;18.38;9.70;;;461.00;2380.80;;;;;;5385535;26;20003;-73
2024/04/12 00:18:22;;;;;;;15.85;9.68;;;461.00;2380.80;;;;;;5397406;26;19992;-72
2024/04/12 00:20:48;;;;;;;17.20;10.25;;;460.90;2380.80;;;;;;5391603;26;20018;-73
2024/04/12 00:23:14;;;;;;;18.00;9.95;;;460.90;2380.80;;;;;;5408688;26;19992;-73
2024/04/12 00:25:40;;;;;;;18.52;9.90;;;460.90;2380.80;;;;;;5396279;26;20455;-72
2024/04/12 00:28:06;;;;;;;16.02;9.85;;;460.90;2380.80;;;;;;5387467;26;19992;-74
2024/04/12 00:30:38;;;;;;;19.75;10.50;;;460.80;2380.80;;;;;;5404826;26;20320;-73
2024/04/12 00:33:11;;;;;;;19.58;11.05;;;460.90;2380.80;;;;;;5402760;26;19997;-74
2024/04/12 00:35:41;;;;;;;19.15;10.70;;;460.90;2380.80;;;;;;5406285;26;20028;-72
2024/04/12 00:38:11;;;;;;;14.55;9.75;;;460.90;2380.80;;;;;;5400782;26;20447;-73
2024/04/12 00:40:40;;;;;;;28.23;11.35;;;460.90;2380.80;;;;;;5416682;26;20064;-73
2024/04/12 00:43:13;;;;;;;23.40;10.32;;;460.80;2380.80;;;;;;5412780;26;20061;-73
2024/04/12 00:45:48;;;;;;;15.38;9.88;;;460.90;2380.80;;;;;;5407569;26;19992;-73
2024/04/12 00:48:15;;;;;;;17.55;11.15;;;460.80;2380.80;;;;;;5409620;26;20086;-73
2024/04/12 00:50:46;;;;;;;22.23;11.88;;;460.90;2380.80;;;;;;5405934;26;20004;-72
2024/04/12 00:53:14;;;;;;;19.05;9.85;;;460.90;2380.80;;;;;;5399474;26;20549;-72
2024/04/12 00:55:40;;;;;;;17.73;10.73;;;460.90;2380.80;;;;;;5407111;26;20003;-72
2024/04/12 00:58:09;;;;;;;14.43;9.55;;;460.90;2380.80;;;;;;5389223;26;20007;-72
2024/04/12 01:00:36;;;;;;;16.65;11.35;;;460.80;2380.80;;;;;;5394649;26;20020;-73
2024/04/12 01:03:05;;;;;;;19.98;10.95;;;460.80;2380.80;;;;;;5393522;26;20004;-73
2024/04/12 01:05:38;;;;;;;17.60;10.05;;;460.90;2380.80;;;;;;5401507;26;20503;-73
2024/04/12 01:08:06;;;;;;;17.65;10.20;;;460.80;2380.80;;;;;;5403375;26;20612;-73
2024/04/12 01:10:36;;;;;;;17.20;10.68;;;460.80;2380.80;;;;;;5415319;26;20014;-73
2024/04/12 01:13:03;;;;;;;13.80;10.15;;;460.80;2380.80;;;;;;5417995;26;20006;-73
2024/04/12 01:15:37;;;;;;;19.95;10.20;;;460.80;2380.80;;;;;;5393569;26;19996;-74
2024/04/12 01:18:04;;;;;;;15.20;10.07;;;436.10;2355.20;;;;;;5382482;26;20315;-73
2024/04/12 01:20:35;;;;;;;16.98;10.27;;;435.90;2355.20;;;;;;5382564;26;20000;-74
2024/04/12 01:23:04;;;;;;;15.02;10.05;;;435.80;2355.20;;;;;;5382253;26;19996;-74
2024/04/12 01:25:31;;;;;;;15.43;10.57;;;435.80;2355.20;;;;;;5382120;26;20000;-73
2024/04/12 01:27:57;;;;;;;15.25;10.32;;;435.80;2355.20;;;;;;5382535;26;19996;-73
2024/04/12 01:30:25;;;;;;;16.70;10.25;;;435.80;2355.20;;;;;;5386498;26;20020;-74
2024/04/12 01:32:51;;;;;;;18.10;11.00;;;435.80;2355.20;;;;;;5399058;26;20378;-74
2024/04/12 01:35:22;;;;;;;17.95;10.43;;;435.80;2355.20;;;;;;5405992;26;19996;-73
2024/04/12 01:37:51;;;;;;;15.32;10.05;;;435.70;2355.20;;;;;;5389755;26;19997;-73
2024/04/12 01:40:23;;;;;;;13.60;9.57;;;435.70;2355.20;;;;;;5397202;26;19992;-74
2024/04/12 01:42:49;;;;;;;20.17;10.60;;;435.70;2355.20;;;;;;5402141;26;19995;-73
2024/04/12 01:45:15;;;;;;;17.70;10.18;;;435.70;2355.20;;;;;;5402994;26;20073;-74
2024/04/12 01:47:46;;;;;;;17.80;10.23;;;435.60;2355.20;;;;;;5405994;26;19992;-73
2024/04/12 01:50:12;;;;;;;19.40;11.63;;;435.50;2355.20;;;;;;5413237;26;20007;-73
2024/04/12 01:53:09;;;;;;;16.65;11.02;;;435.50;2355.20;;;;;;5398922;26;20027;-74
2024/04/12 01:55:26;;;;;;;14.20;10.55;;;435.50;2355.20;;;;;;5407417;26;20000;-73
2024/04/12 01:57:55;;;;;;;17.50;11.93;;;435.40;2355.20;;;;;;5413082;26;20432;-75
2024/04/12 02:00:23;;;;;;;15.82;10.82;;;435.50;2355.20;;;;;;5395262;26;20077;-73
2024/04/12 02:02:53;;;;;;;20.27;11.38;;;435.50;2355.20;;;;;;5404521;26;20004;-75
2024/04/12 02:05:32;;;;;;;22.15;10.43;;;435.50;2355.20;;;;;;5410573;26;20000;-74
2024/04/12 02:07:59;;;;;;;21.15;11.85;;;435.50;2355.20;;;;;;5395949;26;20073;-74
2024/04/12 02:10:26;;;;;;;18.73;10.57;;;435.50;2355.20;;;;;;5412891;26;20014;-73
2024/04/12 02:12:55;;;;;;;20.42;11.80;;;435.50;2355.20;;;;;;5406195;26;20007;-73
2024/04/12 02:15:25;;;;;;;21.05;10.93;;;435.50;2355.20;;;;;;5406362;26;19996;-74
2024/04/12 02:17:58;;;;;;;20.77;12.20;;;435.50;2355.20;;;;;;5410903;26;20010;-73
2024/04/12 02:20:38;;;;;;;14.20;11.48;;;435.30;2355.20;;;;;;5409028;26;20001;-74
2024/04/12 02:23:05;;;;;;;18.45;11.18;;;435.30;2355.20;;;;;;5412785;26;20105;-73
2024/04/12 02:25:39;;;;;;;18.77;11.95;;;435.30;2355.20;;;;;;5403915;26;20437;-74
2024/04/12 02:28:11;;;;;;;19.05;11.85;;;435.30;2355.20;;;;;;5415286;26;20334;-73
2024/04/12 02:30:44;;;;;;;18.23;11.45;;;435.50;2355.20;;;;;;5410696;26;20014;-75
2024/04/12 02:33:12;;;;;;;16.25;11.25;;;435.40;2355.20;;;;;;5403783;26;20480;-73
2024/04/12 02:35:41;;;;;;;17.15;11.95;;;435.50;2355.20;;;;;;5403386;26;20037;-75
2024/04/12 02:38:09;;;;;;;25.88;12.82;;;435.50;2355.20;;;;;;5403191;26;19992;-74
2024/04/12 02:40:38;;;;;;;19.05;11.98;;;435.50;2355.20;;;;;;5407710;26;20003;-74
2024/04/12 02:43:05;;;;;;;18.75;11.80;;;435.50;2355.20;;;;;;5401255;26;19999;-72
2024/04/12 02:45:33;;;;;;;14.85;10.35;;;435.60;2355.20;;;;;;5409070;26;20348;-73
2024/04/12 02:47:59;;;;;;;19.20;12.10;;;435.60;2355.20;;;;;;5415719;26;20006;-74
2024/04/12 02:50:25;;;;;;;16.30;11.18;;;435.50;2355.20;;;;;;5403410;26;20028;-73
2024/04/12 02:52:54;;;;;;;18.00;12.45;;;435.50;2355.20;;;;;;5409490;26;20068;-75
2024/04/12 02:55:21;;;;;;;16.95;11.65;;;435.60;2355.20;;;;;;5404004;26;20003;-73
2024/04/12 02:57:47;;;;;;;21.33;12.30;;;435.50;2355.20;;;;;;5409417;26;19996;-73
2024/04/12 03:00:31;;;;;;;21.17;11.38;;;435.50;2355.20;;;;;;5414336;26;20020;-74
2024/04/12 03:02:57;;;;;;;15.60;11.55;;;435.50;2355.20;;;;;;5412905;26;19996;-74
2024/04/12 03:05:23;;;;;;;17.90;12.60;;;435.60;2355.20;;;;;;5418619;26;19995;-75
2024/04/12 03:07:52;;;;;;;25.17;13.07;;;435.60;2355.20;;;;;;5409495;26;20000;-74
2024/04/12 03:10:18;;;;;;;23.23;12.57;;;435.60;2355.20;;;;;;5388924;26;19995;-75
2024/04/12 03:12:46;;;;;;;17.35;11.80;;;435.60;2355.20;;;;;;5416598;26;20017;-73
2024/04/12 03:15:14;;;;;;;18.45;10.45;;;435.50;2355.20;;;;;;5409536;26;20032;-74
2024/04/12 03:17:43;;;;;;;17.08;11.55;;;435.30;2355.20;;;;;;5407912;26;19996;-73
2024/04/12 03:20:09;;;;;;;18.15;12.75;;;410.50;2355.20;;;;;;5415402;26;20428;-73
2024/04/12 03:22:34;;;;;;;16.65;11.25;;;410.50;2355.20;;;;;;5407046;26;20014;-74
2024/04/12 03:25:00;;;;;;;16.10;11.30;;;410.30;2355.20;;;;;;5409776;26;19996;-73
2024/04/12 03:27:26;;;;;;;17.48;11.13;;;410.20;2355.20;;;;;;5414348;26;20054;-74
2024/04/12 03:29:52;;;;;;;15.73;11.05;;;409.90;2355.20;;;;;;5411722;26;20000;-75
2024/04/12 03:32:19;;;;;;;16.27;11.52;;;409.70;2355.20;;;;;;5412428;26;20343;-73
2024/04/12 03:34:48;;;;;;;18.63;11.88;;;409.70;2355.20;;;;;;5410098;26;19996;-73
2024/04/12 03:37:23;;;;;;;17.05;11.75;;;409.70;2355.20;;;;;;5412364;26;20003;-73
2024/04/12 03:40:00;;;;;;;17.35;11.35;;;409.70;2355.20;;;;;;5404113;26;20362;-73
2024/04/12 03:42:28;;;;;;;20.73;12.27;;;409.70;2355.20;;;;;;5408396;26;19999;-75
2024/04/12 03:44:58;;;;;;;16.15;12.32;;;409.70;2355.20;;;;;;5407246;26;20015;-73
2024/04/12 03:47:26;;;;;;;17.20;11.38;;;409.70;2355.20;;;;;;5413401;26;20007;-73
2024/04/12 03:49:52;;;;;;;17.15;11.95;;;409.60;2355.20;;;;;;5415140;26;20010;-73
2024/04/12 03:52:22;;;;;;;18.90;12.38;;;409.60;2355.20;;;;;;5406560;26;20010;-73
2024/04/12 03:54:48;;;;;;;17.67;12.38;;;409.60;2355.20;;;;;;5412291;26;20496;-73
2024/04/12 03:57:14;;;;;;;16.67;11.55;;;409.60;2355.20;;;;;;5408268;26;20008;-73
2024/04/12 03:59:43;;;;;;;18.45;12.60;;;384.90;2329.60;;;;;;5414893;26;20353;-74
2024/04/12 04:02:09;;;;;;;17.40;13.35;;;384.80;2329.60;;;;;;5409235;26;20010;-73
2024/04/12 04:04:37;;;;;;;18.92;13.48;;;384.90;2329.60;;;;;;5409759;26;20000;-73
2024/04/12 04:07:09;;;;;;;16.77;13.35;;;384.90;2329.60;;;;;;5402806;26;19999;-74
2024/04/12 04:09:38;;;;;;;20.48;12.88;;;384.90;2329.60;;;;;;5399473;26;20003;-73
2024/04/12 04:12:04;;;;;;;18.80;13.75;;;384.70;2329.60;;;;;;5399710;26;20010;-74
2024/04/12 04:14:32;;;;;;;18.35;13.77;;;384.90;2329.60;;;;;;5411606;26;20004;-73
2024/04/12 04:17:03;;;;;;;18.75;13.30;;;384.70;2329.60;;;;;;5408491;26;20000;-73
2024/04/12 04:19:30;;;;;;;24.88;15.15;;;384.60;2329.60;;;;;;5399870;26;20444;-74
2024/04/12 04:22:21;;;;;;;22.33;14.25;;;384.70;2329.60;;;;;;5406546;26;20044;-73
2024/04/12 04:24:54;;;;;;;19.65;13.68;;;384.70;2329.60;;;;;;5417856;26;20000;-73
2024/04/12 04:27:24;;;;;;;20.75;14.32;;;384.70;2329.60;;;;;;5392650;26;19992;-73
2024/04/12 04:29:56;;;;;;;19.98;14.75;;;384.70;2329.60;;;;;;5400735;26;20014;-73
2024/04/12 04:32:26;;;;;;;20.90;13.80;;;384.80;2329.60;;;;;;5402624;26;20071;-74
2024/04/12 04:35:04;;;;;;;23.65;14.15;;;384.90;2329.60;;;;;;5410730;26;20019;-73
2024/04/12 04:37:34;;;;;;;19.05;14.85;;;409.70;2355.20;;;;;;5412078;26;20004;-74
2024/04/12 04:40:09;;;;;;;22.88;15.27;;;409.60;2355.20;;;;;;5406062;26;20006;-75
2024/04/12 04:42:39;;;;;;;26.25;15.05;;;409.60;2355.20;;;;;;5411234;26;20082;-74
2024/04/12 04:45:08;;;;;;;24.60;15.20;;;409.70;2355.20;;;;;;5405064;26;20003;-73
2024/04/12 04:47:39;;;;;;;19.67;14.32;;;409.80;2355.20;;;;;;5397232;26;20291;-74
2024/04/12 04:50:08;;;;;;;18.45;13.85;;;409.90;2355.20;;;;;;5393041;26;20008;-75
2024/04/12 04:52:37;;;;;;;21.30;14.50;;;410.00;2355.20;;;;;;5403637;26;20015;-74
2024/04/12 04:55:06;;;;;;;21.88;14.02;;;410.00;2355.20;;;;;;5414159;26;20047;-73
2024/04/12 04:57:35;;;;;;;21.55;13.88;;;409.90;2355.20;;;;;;5392217;26;20011;-73
2024/04/12 05:00:06;;;;;;;25.38;15.18;;;410.00;2355.20;;;;;;5400751;26;20000;-74
2024/04/12 05:02:35;;;;;;;18.60;13.88;;;410.00;2355.20;;;;;;5405547;26;20087;-73
2024/04/12 05:05:05;;;;;;;19.90;14.02;;;410.20;2355.20;;;;;;5406441;26;20015;-73
2024/04/12 05:07:34;;;;;;;18.02;13.63;;;410.00;2355.20;;;;;;5394071;26;20048;-73
2024/04/12 05:10:14;;;;;;;19.48;13.60;;;410.20;2355.20;;;;;;5407588;26;20431;-72
2024/04/12 05:12:40;;;;;;;23.42;13.73;;;410.10;2355.20;;;;;;5395643;26;20000;-73
2024/04/12 05:16:10;;;;;;;20.88;14.10;;;410.00;2355.20;;;;;;5392879;26;20516;-73
2024/04/12 05:18:05;;;;;;;23.05;13.32;;;410.20;2355.20;;;;;;5413597;26;20102;-73
2024/04/12 05:20:40;;;;;;;20.08;14.10;;;410.30;2355.20;;;;;;5403415;26;20433;-73
2024/04/12 05:23:18;;;;;;;18.73;13.43;;;410.20;2355.20;;;;;;5403902;26;20007;-73
2024/04/12 05:25:46;;;;;;;17.95;13.35;;;410.30;2355.20;;;;;;5402232;26;20010;-73
2024/04/12 05:28:12;;;;;;;21.75;13.43;;;410.40;2355.20;;;;;;5394080;26;20010;-73
2024/04/12 05:30:42;;;;;;;20.75;13.35;;;410.40;2355.20;;;;;;5396856;26;20005;-74
2024/04/12 05:33:10;;;;;;;23.15;13.65;;;410.40;2355.20;;;;;;5391006;26;19996;-74
2024/04/12 05:35:37;;;;;;;22.30;13.30;;;410.50;2355.20;;;;;;5397926;26;20008;-74
2024/04/12 05:38:07;;;;;;;19.13;13.23;;;435.20;2355.20;;;;;;5387783;26;20003;-74
2024/04/12 05:40:45;;;;;;;19.15;13.38;;;435.30;2355.20;;;;;;5402654;26;20500;-73
2024/04/12 05:43:15;;;;;;;18.27;13.40;;;435.30;2355.20;;;;;;5404583;26;20047;-75
2024/04/12 05:45:41;;;;;;;20.58;13.70;;;435.40;2355.20;;;;;;5386388;26;19992;-76
2024/04/12 05:48:14;;;;;;;25.52;14.45;;;435.50;2355.20;;;;;;5390816;26;20039;-76
2024/04/12 05:50:48;;;;;;;19.23;13.82;;;435.60;2355.20;;;;;;5398423;26;20434;-75
2024/04/12 05:53:14;;;;;;;26.67;13.63;;;435.70;2355.20;;;;;;5397249;26;20012;-73
2024/04/12 05:55:44;;;;;;;21.40;14.30;;;435.70;2355.20;;;;;;5403978;26;20015;-75
2024/04/12 05:58:18;;;;;;;19.25;14.55;;;435.80;2355.20;;;;;;5403387;26;20000;-74
2024/04/12 06:00:48;;;;;;;20.08;14.48;;;435.80;2355.20;;;;;;5397144;26;20024;-78
2024/04/12 06:03:15;;;;;;;19.50;12.38;;;435.80;2355.20;;;;;;5398097;26;20023;-75
2024/04/12 06:05:41;;;;;;;22.17;14.13;;;435.80;2355.20;;;;;;5403598;26;20073;-75
2024/04/12 06:08:07;;;;;;;20.33;13.50;;;435.90;2355.20;;;;;;5399258;26;20471;-75
2024/04/12 06:10:33;;;;;;;21.35;12.40;;;436.00;2355.20;;;;;;5398069;26;20044;-74
2024/04/12 06:13:08;;;;;;;18.95;12.95;;;436.10;2355.20;;;;;;5396261;26;20436;-74
2024/04/12 06:15:37;;;;;;;17.63;13.30;;;460.90;2380.80;;;;;;5404828;26;20073;-75
2024/04/12 06:18:05;;;;;;;25.38;14.00;;;461.10;2380.80;;;;;;5400760;26;20003;-75
2024/04/12 06:20:31;;;;;;;18.88;11.98;;;461.20;2380.80;;;;;;5405385;26;20317;-75
2024/04/12 06:23:06;;;;;;;16.83;12.32;;;461.40;2380.80;;;;;;5405764;26;20011;-75
2024/04/12 06:25:45;;;;;;;18.17;12.00;;;461.30;2380.80;;;;;;5393065;26;20336;-74
2024/04/12 06:28:12;;;;;;;20.95;12.27;;;461.50;2380.80;;;;;;5404197;26;19999;-73
2024/04/12 06:30:49;;;;;;;17.63;12.77;;;461.50;2380.80;;;;;;5411436;26;20290;-74
2024/04/12 06:33:22;;;;;;;20.05;12.18;;;461.60;2380.80;;;;;;5393182;26;19996;-73
2024/04/12 06:35:49;;;;;;;21.35;12.27;;;461.70;2380.80;;;;;;5397994;26;20010;-74
2024/04/12 06:38:25;;;;;;;18.83;12.70;;;486.40;2380.80;;;;;;5401281;26;20092;-75
2024/04/12 06:41:00;;;;;;;18.40;13.00;;;486.50;2380.80;;;;;;5405919;26;20003;-80
2024/04/12 06:43:26;;;;;;;21.02;12.95;;;486.70;2380.80;;;;;;5395825;26;20000;-74
2024/04/12 06:46:07;;;;;;;16.52;12.52;;;486.80;2380.80;;;;;;5406309;26;19999;-75
2024/04/12 06:48:36;;;;;;;16.58;11.25;;;486.80;2380.80;;;;;;5408514;26;19996;-76
2024/04/12 06:51:05;;;;;;;19.38;11.90;;;486.80;2380.80;;;;;;5402649;26;20007;-73
2024/04/12 06:53:32;;;;;;;16.58;12.43;;;487.00;2380.80;;;;;;5394852;26;20008;-73
2024/04/12 06:56:05;;;;;;;19.70;12.52;;;487.10;2380.80;;;;;;5403716;26;20315;-74
2024/04/12 06:58:31;;;;;;;18.52;11.48;;;487.20;2380.80;;;;;;5407444;26;19996;-74
2024/04/12 07:00:58;;;;;;;20.67;11.45;;;487.30;2380.80;;;;;;5403894;26;20006;-75
2024/04/12 07:03:24;;;;;;;19.40;10.95;;;512.30;2380.80;;;;;;5398043;26;20419;-75
2024/04/12 07:05:53;;;;;;;18.98;11.40;;;512.40;2380.80;;;;;;5400447;26;20304;-74
2024/04/12 07:08:26;;;;;;;21.38;11.60;;;512.70;2380.80;;;;;;5396691;26;19992;-74
2024/04/12 07:10:52;;;;;;;18.58;9.77;;;512.70;2380.80;;;;;;5405647;26;20494;-74
2024/04/12 07:13:27;;;;;;;16.38;11.82;;;537.60;2406.40;;;;;;5416009;26;20000;-75
2024/04/12 07:15:56;;;;;;;14.43;10.38;;;;;;;;;;5402177;26;19996;-74
2024/04/12 07:18:23;;;;;;;17.98;11.40;;;538.00;2406.40;;;;;;5401779;26;19995;-74
2024/04/12 07:20:49;;;;;;;16.45;10.88;;;538.10;2406.40;;;;;;5417774;26;19995;-74
2024/04/12 07:23:15;;;;;;;17.23;10.10;;;538.20;2406.40;;;;;;5407242;26;20328;-74
2024/04/12 07:25:45;;;;;;;15.13;10.48;;;538.40;2406.40;;;;;;5407470;26;20004;-73
2024/04/12 07:28:14;;;;;;;19.17;9.98;;;538.50;2406.40;;;;;;5394836;26;19993;-75
2024/04/12 07:30:44;;;;;;;15.43;9.95;;;563.50;2432.00;;;;;;5404885;26;20031;-74
2024/04/12 07:33:13;;;;;;;17.27;9.77;;;563.80;2432.00;;;;;;5404919;26;20000;-75
2024/04/12 07:35:44;;;;;;;18.13;10.23;;;563.90;2432.00;;;;;;5409110;26;20075;-75
2024/04/12 07:38:11;;;;;;;21.27;9.45;;;564.10;2432.00;;;;;;5405395;26;20440;-72
2024/04/12 07:40:40;;;;;;;16.95;10.73;;;588.80;2432.00;;;;;;5409639;26;20002;-74
2024/04/12 07:43:09;;;;;;;18.90;10.38;;;588.80;2355.20;;;;;;5405248;26;20533;-73
2024/04/12 07:45:37;;;;;;;16.42;10.05;;;;;;;;;;5391208;26;20411;-72
2024/04/12 07:50:59;;;;;;;14.40;9.57;;;589.30;2329.60;;;;;;5394911;26;19991;-73
2024/04/12 07:53:26;;;;;;;14.60;10.27;;;589.40;2252.80;;;;;;5414912;26;19992;-74
2024/04/12 07:56:00;;;;;;;15.30;10.13;;;589.50;2252.80;;;;;;5391688;26;20004;-72
2024/04/12 07:58:27;;;;;;;15.85;11.07;;;589.70;2227.20;;;;;;5405809;26;20010;-72
2024/04/12 08:03:41;;;;;;;20.17;9.40;;;589.70;2150.40;;;;;;5395913;26;20007;-75
2024/04/12 08:06:19;;;;;;;13.68;9.40;;;614.90;2124.80;;;;;;5404859;26;20061;-74
2024/04/12 08:09:03;;;;;;;15.82;10.18;;;614.90;2124.80;;;;;;5392347;26;20020;-75
2024/04/12 08:11:34;;;;;;;18.48;10.13;;;614.90;2099.20;;;;;;5394085;26;19992;-74
2024/04/12 08:14:08;;;;;;;17.58;9.40;;;615.20;2073.60;;;;;;5397420;26;19992;-74
2024/04/12 08:16:38;;;;;;;16.75;9.55;;;615.30;2048.00;;;;;;5401118;26;20000;-74
2024/04/12 08:21:54;;;;;;;22.90;11.05;;;640.10;1971.20;;;;;;5408665;26;20008;-73
2024/04/12 08:24:24;;;;;;;18.67;9.98;;;640.40;1996.80;;;;;;5384956;26;19996;-71
2024/04/12 08:26:54;;;;;;;16.73;9.30;;;640.20;1945.60;;;;;;5395138;26;19996;-71
2024/04/12 08:29:26;;;;;;;19.95;10.80;;;640.50;1894.40;;;;;;5387450;26;19996;-73
2024/04/12 08:34:43;;;;;;;18.73;9.65;;;640.60;1868.80;;;;;;5384710;26;19997;-72
2024/04/12 08:37:13;;;;;;;20.88;10.23;;;640.80;1868.80;;;;;;5397852;26;20516;-71
2024/04/12 08:39:44;;;;;;;21.38;10.50;;;665.60;1894.40;;;;;;5401414;26;20439;-71
2024/04/12 08:42:14;;;;;;;17.52;9.88;;;665.80;1843.20;;;;;;5389972;26;20087;-72
2024/04/12 08:44:44;;;;;;;21.63;9.52;;;665.70;1843.20;;;;;;5396848;26;19996;-73
2024/04/12 08:47:30;;;;;;;15.90;10.48;;;665.80;1843.20;;;;;;5399809;26;20011;-70
2024/04/12 08:50:07;;;;;;;17.77;10.60;;;665.90;1843.20;;;;;;5385612;26;20387;-71
2024/04/12 08:52:46;;;;;;;14.63;9.80;;;666.20;1792.00;;;;;;5393469;26;20011;-74
2024/04/12 08:55:13;;;;;;;17.63;9.77;;;666.20;1817.60;;;;;;5393591;26;20496;-73
2024/04/12 08:57:41;;;;;;;21.05;9.63;;;666.30;1792.00;;;;;;5395378;26;20558;-70
2024/04/12 09:00:21;;;;;;;17.13;8.90;;;691.20;1766.40;;;;;;5392856;26;19999;-71
2024/04/12 09:02:59;;;;;;;17.83;7.95;;;691.30;1792.00;;;;;;5412103;26;20459;-72
2024/04/12 09:05:26;;;;;;;14.40;8.30;;;691.60;1715.20;;;;;;5398831;26;20231;-71
2024/04/12 09:07:57;;;;;;;16.70;9.27;;;691.70;1715.20;;;;;;5390380;26;20007;-70
2024/04/12 09:10:27;;;;;;;17.10;9.00;;;691.50;1740.80;;;;;;5404769;26;20051;-70
2024/04/12 09:12:54;;;;;;;21.98;9.32;;;691.50;1715.20;;;;;;5390177;26;20435;-70
2024/04/12 09:15:27;;;;;;;16.98;7.88;;;691.30;1715.20;;;;;;5410280;26;20348;-69
2024/04/12 09:20:40;;;;;;;14.40;8.48;;;691.70;1740.80;;;;;;5406290;26;20039;-69
2024/04/12 09:23:32;;;;;;;13.93;7.88;;;691.60;1715.20;;;;;;5396395;26;20058;-69
2024/04/12 09:25:59;;;;;;;16.77;9.02;;;691.90;1715.20;;;;;;5397019;26;20000;-70
2024/04/12 09:28:27;;;;;;;28.23;9.32;;;;;;;;;;5405619;26;20450;-70
2024/04/12 09:33:50;;;;;;;20.42;8.10;;;717.00;1664.00;;;;;;5399028;26;20572;-70
2024/04/12 09:37:02;;;;;;;15.40;8.30;;;717.00;1638.40;;;;;;5397929;26;20446;-71
2024/04/12 09:42:18;;;;;;;10.15;6.05;;;717.10;1587.20;;;;;;5406800;26;20064;-73
2024/04/12 09:44:48;;;;;;;14.45;6.97;;;717.10;1612.80;;;;;;5402894;26;20000;-71
2024/04/12 10:37:47;;;;;;;10.52;6.13;;;768.10;1459.20;;;;;;5353322;26;20370;-71
2024/04/12 10:40:13;;;;;;;11.45;6.80;;;768.10;1459.20;;;;;;5345048;26;20036;-70
2024/04/12 10:42:42;;;;;;;14.77;5.97;;;768.00;1433.60;;;;;;5363119;26;20511;-71
2024/04/12 10:45:08;;;;;;;17.77;6.72;;;768.20;1408.00;;;;;;5353404;26;20074;-71
2024/04/12 10:47:44;;;;;;;16.58;6.55;;;768.10;1484.80;;;;;;5359426;26;20183;-73
2024/04/12 10:50:10;;;;;;;;;;;768.20;1408.00;;;;;;5363490;26;20032;-70
2024/04/12 10:52:38;;;;;;;14.77;5.78;;;768.40;1382.40;;;;;;5373395;26;19926;-71
2024/04/12 10:55:09;;;;;;;21.10;7.82;;;768.30;1382.40;;;;;;5332145;26;20102;-71
2024/04/12 10:57:47;;;;;;;12.93;5.93;;;768.20;1433.60;;;;;;5364401;26;20468;-72
2024/04/12 11:00:15;;;;;;;11.20;5.82;;;768.40;1408.00;;;;;;5348038;26;19997;-69
2024/04/12 11:02:45;;;;;;;12.93;6.18;;;768.60;1433.60;;;;;;5365656;26;20004;-73
2024/04/12 11:07:46;;;;;;;12.50;6.15;;;768.90;1382.40;;;;;;5399325;26;19996;-70
2024/04/12 11:10:24;;;;;;;19.60;6.53;;;793.60;1408.00;;;;;;5405179;26;20077;-70
2024/04/12 11:12:59;;;;;;;10.10;5.88;;;793.60;1382.40;;;;;;5391678;26;20004;-73
2024/04/12 11:31:52;;;;;;;12.55;6.20;;;768.90;1408.00;;;;;;5393924;26;20421;-71
2024/04/12 11:34:24;;;;;;;8.20;5.53;;;;;;;;;;5406259;26;20011;-70
2024/04/12 11:36:53;;;;;;;12.77;7.50;;;794.00;1382.40;;;;;;5404659;26;20015;-70
2024/04/12 11:39:27;;;;;;;14.27;6.30;;;793.70;1382.40;;;;;;5408738;26;19999;-71
2024/04/12 11:41:56;;;;;;;10.63;6.35;;;793.70;1356.80;;;;;;5407595;26;20392;-74
2024/04/12 11:44:22;;;;;;;18.35;7.03;;;793.60;1382.40;;;;;;5396996;26;19995;-70
2024/04/12 11:46:49;;;;;;;14.18;6.82;;;793.70;1408.00;;;;;;5404376;26;20008;-70
2024/04/12 11:49:25;;;;;;;16.63;7.90;;;768.90;1382.40;;;;;;5391687;26;20002;-71
2024/04/12 11:52:03;;;;;;;12.25;6.97;;;768.40;1408.00;;;;;;5395623;26;20316;-70
2024/04/12 11:54:30;;;;;;;17.95;6.00;;;768.10;1433.60;;;;;;5395018;26;20012;-72
2024/04/12 11:57:00;;;;;;;14.45;6.45;;;768.60;1408.00;;;;;;5408108;26;20022;-71
2024/04/12 11:59:30;;;;;;;9.32;5.80;;;768.70;1382.40;;;;;;5409791;26;20010;-72
2024/04/12 12:02:00;;;;;;;17.98;5.78;;;768.80;1382.40;;;;;;5405384;26;20028;-72
2024/04/12 12:04:30;;;;;;;15.43;5.50;;;768.60;1408.00;;;;;;5397941;26;20010;-71
2024/04/12 12:06:59;;;;;;;14.50;8.20;;;768.60;1408.00;;;;;;5395927;26;20000;-72
2024/04/12 12:09:31;;;;;;;11.57;7.47;;;768.90;1382.40;;;;;;5411511;26;20302;-70
2024/04/12 12:11:58;;;;;;;14.07;6.13;;;768.80;1382.40;;;;;;5415214;26;19991;-71
2024/04/12 12:14:27;;;;;;;15.13;5.63;;;793.70;1382.40;;;;;;5392806;26;20396;-71
2024/04/12 12:17:05;;;;;;;11.00;6.00;;;793.70;1382.40;;;;;;5391637;26;20003;-71
2024/04/12 12:19:32;;;;;;;17.35;7.18;;;793.70;1382.40;;;;;;5407335;26;20003;-71
2024/04/12 12:21:59;;;;;;;11.38;5.97;;;793.60;1382.40;;;;;;5408211;26;20065;-71
2024/04/12 12:24:26;;;;;;;19.73;6.13;;;793.60;1382.40;;;;;;5403341;26;20316;-72
2024/04/12 12:26:52;;;;;;;16.85;6.43;;;793.60;1433.60;;;;;;5412385;26;20015;-71
2024/04/12 12:29:18;;;;;;;15.20;6.07;;;793.60;1382.40;;;;;;5406058;26;20004;-72
2024/04/12 12:31:48;;;;;;;12.13;5.78;;;793.70;1382.40;;;;;;5389171;26;20050;-71
2024/04/12 12:34:14;;;;;;;11.40;5.93;;;793.70;1382.40;;;;;;5399969;26;20450;-72
2024/04/12 12:36:40;;;;;;;12.05;5.93;;;793.70;1356.80;;;;;;5398288;26;20003;-74
2024/04/12 12:39:09;;;;;;;8.75;5.70;;;793.70;1356.80;;;;;;5394883;26;19995;-71
2024/04/12 12:41:35;;;;;;;13.75;5.82;;;793.60;1382.40;;;;;;5399243;26;20007;-71
2024/04/12 12:44:05;;;;;;;11.45;4.90;;;768.90;1331.20;;;;;;5406472;26;20002;-71
2024/04/12 12:46:32;;;;;;;11.18;5.40;;;793.70;1356.80;;;;;;5399589;26;20015;-74
2024/04/12 12:48:58;;;;;;;13.93;5.72;;;793.70;1382.40;;;;;;5408710;26;20005;-74
2024/04/12 12:51:26;;;;;;;11.50;5.93;;;793.70;1331.20;;;;;;5400585;26;20194;-72
2024/04/12 12:54:00;;;;;;;12.38;5.10;;;793.60;1356.80;;;;;;5404343;26;19999;-71
2024/04/12 12:56:31;;;;;;;18.25;5.60;;;793.70;1331.20;;;;;;5410310;26;20008;-72
2024/04/12 12:58:59;;;;;;;8.88;5.18;;;793.60;1331.20;;;;;;5406884;26;20393;-71
2024/04/12 13:01:34;;;;;;;17.55;5.35;;;793.70;1331.20;;;;;;5400816;26;20039;-72
2024/04/12 13:04:07;;;;;;;;;;;768.80;1331.20;;;;;;5393625;26;19992;-72
2024/04/12 13:06:36;;;;;;;9.73;5.50;;;768.80;1356.80;;;;;;5404251;26;19925;-71
2024/04/12 13:09:04;;;;;;;13.70;5.57;;;768.80;1331.20;;;;;;5407091;26;20000;-71
2024/04/12 13:11:31;;;;;;;15.93;4.85;;;768.90;1331.20;;;;;;5402176;26;20000;-71
2024/04/12 13:14:02;;;;;;;11.40;5.13;;;768.90;1331.20;;;;;;5401307;26;19996;-71
2024/04/12 13:16:27;;;;;;;11.90;5.55;;;768.90;1331.20;;;;;;5394822;26;20000;-72
2024/04/12 13:18:56;;;;;;;12.02;5.95;;;768.80;1305.60;;;;;;5400278;26;19996;-71
2024/04/12 13:21:25;;;;;;;11.43;5.05;;;768.80;1331.20;;;;;;5396643;26;20000;-71
2024/04/12 13:23:51;;;;;;;10.65;5.60;;;768.90;1356.80;;;;;;5396520;26;20015;-71
2024/04/12 13:26:23;;;;;;;9.57;5.65;;;768.80;1356.80;;;;;;5408997;26;20068;-72
2024/04/12 13:28:52;;;;;;;11.93;5.15;;;768.80;1331.20;;;;;;5399650;26;20011;-72
2024/04/12 13:31:25;;;;;;;12.00;5.15;;;768.80;1305.60;;;;;;5391125;26;20000;-71
2024/04/12 13:33:54;;;;;;;11.18;5.35;;;768.80;1305.60;;;;;;5401579;26;20076;-72
2024/04/12 13:36:21;;;;;;;6.97;5.03;;;768.60;1356.80;;;;;;5384258;26;20023;-71
2024/04/12 13:38:50;;;;;;;9.98;5.50;;;768.60;1382.40;;;;;;5406151;26;20000;-71
2024/04/12 13:41:18;;;;;;;14.18;5.38;;;768.50;1356.80;;;;;;5386356;26;20000;-73
2024/04/12 13:43:49;;;;;;;14.10;5.88;;;768.50;1356.80;;;;;;5412067;26;19992;-71
2024/04/12 13:51:51;;;;;;;14.85;4.80;;;768.40;1331.20;;;;;;5392186;26;20342;-72
2024/04/12 13:54:22;;;;;;;15.63;5.57;;;768.40;1331.20;;;;;;5397949;26;20381;-73